sensor_id;sensor_type;location;lat;lon;timestamp;temperature;humidity
33023;DHT22;19390;51.460;5.710;2022-11-20T00:01:22;-1.30;99.90
33023;DHT22;19390;51.460;5.710;2022-11-20T00:03:48;-1.40;99.90
33023;DHT22;19390;51.460;5.710;2022-11-20T00:06:16;-1.50;99.90
33023;DHT22;19390;51.460;5.710;2022-11-20T00:08:43;-1.40;99.90
33023;DHT22;19390;51.460;5.710;2022-11-20T00:11:14;-1.50;99.90
33023;DHT22;19390;51.460;5.710;2022-11-20T00:13:40;-1.60;99.90
33023;DHT22;19390;51.460;5.710;2022-11-20T00:16:08;-1.70;99.90
33023;DHT22;19390;51.460;5.710;2022-11-20T00:18:34;-1.70;99.90
33023;DHT22;19390;51.460;5.710;2022-11-20T00:21:04;-1.80;99.90
33023;DHT22;19390;51.460;5.710;2022-11-20T00:23:30;-1.90;99.90
33023;DHT22;19390;51.460;5.710;2022-11-20T00:25:56;-1.90;99.90
33023;DHT22;19390;51.460;5.710;2022-11-20T00:28:22;-2.00;99.90
33023;DHT22;19390;51.460;5.710;2022-11-20T00:30:47;-2.00;99.90
33023;DHT22;19390;51.460;5.710;2022-11-20T00:33:13;-1.90;99.90
33023;DHT22;19390;51.460;5.710;2022-11-20T00:35:39;-1.90;99.90
33023;DHT22;19390;51.460;5.710;2022-11-20T00:38:04;-2.00;99.90
33023;DHT22;19390;51.460;5.710;2022-11-20T00:40:30;-2.10;99.90
33023;DHT22;19390;51.460;5.710;2022-11-20T00:42:55;-2.10;99.90
33023;DHT22;19390;51.460;5.710;2022-11-20T00:45:21;-2.20;99.90
33023;DHT22;19390;51.460;5.710;2022-11-20T00:47:47;-2.10;99.90
33023;DHT22;19390;51.460;5.710;2022-11-20T00:50:12;-2.10;99.90
33023;DHT22;19390;51.460;5.710;2022-11-20T00:52:38;-2.10;99.90
33023;DHT22;19390;51.460;5.710;2022-11-20T00:55:04;-2.00;99.90
33023;DHT22;19390;51.460;5.710;2022-11-20T00:57:29;-2.00;99.90
33023;DHT22;19390;51.460;5.710;2022-11-20T00:59:55;-2.20;99.90
33023;DHT22;19390;51.460;5.710;2022-11-20T01:02:21;-2.20;99.90
33023;DHT22;19390;51.460;5.710;2022-11-20T01:04:46;-2.40;99.90
33023;DHT22;19390;51.460;5.710;2022-11-20T01:07:12;-2.50;99.90
33023;DHT22;19390;51.460;5.710;2022-11-20T01:09:38;-2.50;99.90
33023;DHT22;19390;51.460;5.710;2022-11-20T01:12:04;-2.50;99.90
33023;DHT22;19390;51.460;5.710;2022-11-20T01:14:29;-2.50;99.90
33023;DHT22;19390;51.460;5.710;2022-11-20T01:16:55;-2.50;99.90
33023;DHT22;19390;51.460;5.710;2022-11-20T01:19:22;-2.50;99.90
33023;DHT22;19390;51.460;5.710;2022-11-20T01:21:53;-2.50;99.90
33023;DHT22;19390;51.460;5.710;2022-11-20T01:24:20;-2.60;99.90
33023;DHT22;19390;51.460;5.710;2022-11-20T01:26:50;-2.60;99.90
33023;DHT22;19390;51.460;5.710;2022-11-20T01:29:24;-2.60;99.90
33023;DHT22;19390;51.460;5.710;2022-11-20T01:31:49;-2.70;99.90
33023;DHT22;19390;51.460;5.710;2022-11-20T01:34:20;-2.70;99.90
33023;DHT22;19390;51.460;5.710;2022-11-20T01:36:46;-2.70;99.90
33023;DHT22;19390;51.460;5.710;2022-11-20T01:39:20;-2.70;99.90
33023;DHT22;19390;51.460;5.710;2022-11-20T01:41:47;-2.80;99.90
33023;DHT22;19390;51.460;5.710;2022-11-20T01:47:22;-2.80;99.90
33023;DHT22;19390;51.460;5.710;2022-11-20T01:49:53;-2.70;99.90
33023;DHT22;19390;51.460;5.710;2022-11-20T01:52:23;-2.70;99.90
33023;DHT22;19390;51.460;5.710;2022-11-20T01:54:56;-2.70;99.90
33023;DHT22;19390;51.460;5.710;2022-11-20T01:57:25;-2.80;99.90
33023;DHT22;19390;51.460;5.710;2022-11-20T02:00:00;-2.80;99.90
33023;DHT22;19390;51.460;5.710;2022-11-20T02:02:27;-2.70;99.90
33023;DHT22;19390;51.460;5.710;2022-11-20T02:04:54;-2.80;99.90
33023;DHT22;19390;51.460;5.710;2022-11-20T02:07:23;-2.70;99.90
33023;DHT22;19390;51.460;5.710;2022-11-20T02:09:49;-2.80;99.90
33023;DHT22;19390;51.460;5.710;2022-11-20T02:12:14;-2.80;99.90
33023;DHT22;19390;51.460;5.710;2022-11-20T02:15:00;-2.80;99.90
33023;DHT22;19390;51.460;5.710;2022-11-20T02:17:26;-2.80;99.90
33023;DHT22;19390;51.460;5.710;2022-11-20T02:19:53;-2.80;99.90
33023;DHT22;19390;51.460;5.710;2022-11-20T02:22:33;-2.90;99.90
33023;DHT22;19390;51.460;5.710;2022-11-20T02:25:02;-2.80;99.90
33023;DHT22;19390;51.460;5.710;2022-11-20T02:27:29;-2.80;99.90
33023;DHT22;19390;51.460;5.710;2022-11-20T02:30:01;-2.70;99.90
33023;DHT22;19390;51.460;5.710;2022-11-20T02:32:34;-2.70;99.90
33023;DHT22;19390;51.460;5.710;2022-11-20T02:37:56;-2.50;99.90
33023;DHT22;19390;51.460;5.710;2022-11-20T02:40:23;-2.30;99.90
33023;DHT22;19390;51.460;5.710;2022-11-20T02:42:52;-2.20;99.90
33023;DHT22;19390;51.460;5.710;2022-11-20T02:45:18;-2.10;99.90
33023;DHT22;19390;51.460;5.710;2022-11-20T02:47:44;-2.10;99.90
33023;DHT22;19390;51.460;5.710;2022-11-20T02:50:10;-1.90;99.90
33023;DHT22;19390;51.460;5.710;2022-11-20T02:52:35;-1.80;99.90
33023;DHT22;19390;51.460;5.710;2022-11-20T02:55:01;-1.60;99.90
33023;DHT22;19390;51.460;5.710;2022-11-20T02:57:27;-1.50;99.90
33023;DHT22;19390;51.460;5.710;2022-11-20T02:59:53;-1.50;99.90
33023;DHT22;19390;51.460;5.710;2022-11-20T03:02:19;-1.50;99.90
33023;DHT22;19390;51.460;5.710;2022-11-20T03:04:45;-1.50;99.90
33023;DHT22;19390;51.460;5.710;2022-11-20T03:07:10;-1.40;99.90
33023;DHT22;19390;51.460;5.710;2022-11-20T03:09:36;-1.40;99.90
33023;DHT22;19390;51.460;5.710;2022-11-20T03:12:02;-1.30;99.90
33023;DHT22;19390;51.460;5.710;2022-11-20T03:14:28;-1.30;99.90
33023;DHT22;19390;51.460;5.710;2022-11-20T03:16:54;-1.20;99.90
33023;DHT22;19390;51.460;5.710;2022-11-20T03:19:20;-1.20;99.90
33023;DHT22;19390;51.460;5.710;2022-11-20T03:21:45;-1.20;99.90
33023;DHT22;19390;51.460;5.710;2022-11-20T03:24:12;-1.30;99.90
33023;DHT22;19390;51.460;5.710;2022-11-20T03:26:38;-1.30;99.90
33023;DHT22;19390;51.460;5.710;2022-11-20T03:29:04;-1.40;99.90
33023;DHT22;19390;51.460;5.710;2022-11-20T03:31:33;-1.50;99.90
33023;DHT22;19390;51.460;5.710;2022-11-20T03:33:59;-1.60;99.90
33023;DHT22;19390;51.460;5.710;2022-11-20T03:36:26;-1.60;99.90
33023;DHT22;19390;51.460;5.710;2022-11-20T03:38:54;-1.60;99.90
33023;DHT22;19390;51.460;5.710;2022-11-20T03:41:22;-1.60;99.90
33023;DHT22;19390;51.460;5.710;2022-11-20T03:43:52;-1.50;99.90
33023;DHT22;19390;51.460;5.710;2022-11-20T03:46:19;-1.40;99.90
33023;DHT22;19390;51.460;5.710;2022-11-20T03:48:45;-1.40;99.90
33023;DHT22;19390;51.460;5.710;2022-11-20T03:51:21;-1.30;99.90
33023;DHT22;19390;51.460;5.710;2022-11-20T03:53:48;-1.30;99.90
33023;DHT22;19390;51.460;5.710;2022-11-20T03:56:16;-1.40;99.90
33023;DHT22;19390;51.460;5.710;2022-11-20T03:58:42;-1.40;99.90
33023;DHT22;19390;51.460;5.710;2022-11-20T04:01:10;-1.40;99.90
33023;DHT22;19390;51.460;5.710;2022-11-20T04:03:37;-1.50;99.90
33023;DHT22;19390;51.460;5.710;2022-11-20T04:06:09;-1.50;99.90
33023;DHT22;19390;51.460;5.710;2022-11-20T04:08:35;-1.50;99.90
33023;DHT22;19390;51.460;5.710;2022-11-20T04:11:18;-1.70;99.90
33023;DHT22;19390;51.460;5.710;2022-11-20T04:13:52;-1.70;99.90
33023;DHT22;19390;51.460;5.710;2022-11-20T04:16:18;-1.80;99.90
33023;DHT22;19390;51.460;5.710;2022-11-20T04:18:44;-1.90;99.90
33023;DHT22;19390;51.460;5.710;2022-11-20T04:21:11;-2.00;99.90
33023;DHT22;19390;51.460;5.710;2022-11-20T04:23:37;-2.10;99.90
33023;DHT22;19390;51.460;5.710;2022-11-20T04:26:08;-2.20;99.90
33023;DHT22;19390;51.460;5.710;2022-11-20T04:28:34;-2.30;99.90
33023;DHT22;19390;51.460;5.710;2022-11-20T04:31:05;-2.30;99.90
33023;DHT22;19390;51.460;5.710;2022-11-20T04:33:32;-2.30;99.90
33023;DHT22;19390;51.460;5.710;2022-11-20T04:36:11;-2.20;99.90
33023;DHT22;19390;51.460;5.710;2022-11-20T04:38:37;-2.30;99.90
33023;DHT22;19390;51.460;5.710;2022-11-20T04:41:05;-2.30;99.90
33023;DHT22;19390;51.460;5.710;2022-11-20T04:43:32;-2.30;99.90
33023;DHT22;19390;51.460;5.710;2022-11-20T04:45:58;-2.30;99.90
33023;DHT22;19390;51.460;5.710;2022-11-20T04:48:25;-2.40;99.90
33023;DHT22;19390;51.460;5.710;2022-11-20T04:50:52;-2.50;99.90
33023;DHT22;19390;51.460;5.710;2022-11-20T04:53:18;-2.50;99.90
33023;DHT22;19390;51.460;5.710;2022-11-20T04:55:44;-2.60;99.90
33023;DHT22;19390;51.460;5.710;2022-11-20T04:58:10;-2.60;99.90
33023;DHT22;19390;51.460;5.710;2022-11-20T05:00:36;-2.60;99.90
33023;DHT22;19390;51.460;5.710;2022-11-20T05:03:01;-2.60;99.90
33023;DHT22;19390;51.460;5.710;2022-11-20T05:05:27;-2.70;99.90
33023;DHT22;19390;51.460;5.710;2022-11-20T05:07:55;-2.60;99.90
33023;DHT22;19390;51.460;5.710;2022-11-20T05:10:21;-2.60;99.90
33023;DHT22;19390;51.460;5.710;2022-11-20T05:12:46;-2.60;99.90
33023;DHT22;19390;51.460;5.710;2022-11-20T05:15:12;-2.60;99.90
33023;DHT22;19390;51.460;5.710;2022-11-20T05:17:38;-2.70;99.90
33023;DHT22;19390;51.460;5.710;2022-11-20T05:20:04;-2.60;99.90
33023;DHT22;19390;51.460;5.710;2022-11-20T05:22:29;-2.50;99.90
33023;DHT22;19390;51.460;5.710;2022-11-20T05:24:55;-2.50;99.90
33023;DHT22;19390;51.460;5.710;2022-11-20T05:27:20;-2.50;99.90
33023;DHT22;19390;51.460;5.710;2022-11-20T05:29:46;-2.40;99.90
33023;DHT22;19390;51.460;5.710;2022-11-20T05:32:12;-2.30;99.90
33023;DHT22;19390;51.460;5.710;2022-11-20T05:34:37;-2.20;99.90
33023;DHT22;19390;51.460;5.710;2022-11-20T05:37:03;-2.10;99.90
33023;DHT22;19390;51.460;5.710;2022-11-20T05:39:28;-2.00;99.90
33023;DHT22;19390;51.460;5.710;2022-11-20T05:41:54;-1.90;99.90
33023;DHT22;19390;51.460;5.710;2022-11-20T05:44:39;-1.90;99.90
33023;DHT22;19390;51.460;5.710;2022-11-20T05:47:04;-1.90;99.90
33023;DHT22;19390;51.460;5.710;2022-11-20T05:49:30;-1.90;99.90
33023;DHT22;19390;51.460;5.710;2022-11-20T05:51:56;-1.80;99.90
33023;DHT22;19390;51.460;5.710;2022-11-20T05:54:21;-1.80;99.90
33023;DHT22;19390;51.460;5.710;2022-11-20T05:56:47;-1.90;99.90
33023;DHT22;19390;51.460;5.710;2022-11-20T05:59:13;-1.90;99.90
33023;DHT22;19390;51.460;5.710;2022-11-20T06:01:38;-1.70;99.90
33023;DHT22;19390;51.460;5.710;2022-11-20T06:04:04;-1.60;99.90
33023;DHT22;19390;51.460;5.710;2022-11-20T06:06:30;-1.60;99.90
33023;DHT22;19390;51.460;5.710;2022-11-20T06:08:55;-1.50;99.90
33023;DHT22;19390;51.460;5.710;2022-11-20T06:11:21;-1.50;99.90
33023;DHT22;19390;51.460;5.710;2022-11-20T06:13:47;-1.60;99.90
33023;DHT22;19390;51.460;5.710;2022-11-20T06:16:16;-1.60;99.90
33023;DHT22;19390;51.460;5.710;2022-11-20T06:18:42;-1.60;99.90
33023;DHT22;19390;51.460;5.710;2022-11-20T06:21:13;-1.50;99.90
33023;DHT22;19390;51.460;5.710;2022-11-20T06:23:40;-1.40;99.90
33023;DHT22;19390;51.460;5.710;2022-11-20T06:26:14;-1.30;99.90
33023;DHT22;19390;51.460;5.710;2022-11-20T06:28:40;-1.40;99.90
33023;DHT22;19390;51.460;5.710;2022-11-20T06:31:07;-1.30;99.90
33023;DHT22;19390;51.460;5.710;2022-11-20T06:33:35;-1.30;99.90
33023;DHT22;19390;51.460;5.710;2022-11-20T06:36:01;-1.30;99.90
33023;DHT22;19390;51.460;5.710;2022-11-20T06:38:28;-1.40;99.90
33023;DHT22;19390;51.460;5.710;2022-11-20T06:40:54;-1.30;99.90
33023;DHT22;19390;51.460;5.710;2022-11-20T06:43:20;-1.30;99.90
33023;DHT22;19390;51.460;5.710;2022-11-20T06:45:46;-1.30;99.90
33023;DHT22;19390;51.460;5.710;2022-11-20T06:48:11;-1.30;99.90
33023;DHT22;19390;51.460;5.710;2022-11-20T06:50:37;-1.30;99.90
33023;DHT22;19390;51.460;5.710;2022-11-20T06:53:04;-1.20;99.90
33023;DHT22;19390;51.460;5.710;2022-11-20T06:55:30;-1.20;99.90
33023;DHT22;19390;51.460;5.710;2022-11-20T06:57:56;-1.10;99.90
33023;DHT22;19390;51.460;5.710;2022-11-20T07:00:22;-1.20;99.90
33023;DHT22;19390;51.460;5.710;2022-11-20T07:02:48;-1.20;99.90
33023;DHT22;19390;51.460;5.710;2022-11-20T07:05:13;-1.10;99.90
33023;DHT22;19390;51.460;5.710;2022-11-20T07:07:39;-1.10;99.90
33023;DHT22;19390;51.460;5.710;2022-11-20T07:10:05;-1.20;99.90
33023;DHT22;19390;51.460;5.710;2022-11-20T07:12:31;-1.10;99.90
33023;DHT22;19390;51.460;5.710;2022-11-20T07:14:56;-1.00;99.90
33023;DHT22;19390;51.460;5.710;2022-11-20T07:17:22;-1.00;99.90
33023;DHT22;19390;51.460;5.710;2022-11-20T07:19:48;-0.90;99.90
33023;DHT22;19390;51.460;5.710;2022-11-20T07:22:13;-0.90;99.90
33023;DHT22;19390;51.460;5.710;2022-11-20T07:24:39;-1.00;99.90
33023;DHT22;19390;51.460;5.710;2022-11-20T07:27:05;-1.00;99.90
33023;DHT22;19390;51.460;5.710;2022-11-20T07:29:30;-0.80;99.90
33023;DHT22;19390;51.460;5.710;2022-11-20T07:31:57;-0.70;99.90
33023;DHT22;19390;51.460;5.710;2022-11-20T07:34:23;-0.50;99.90
33023;DHT22;19390;51.460;5.710;2022-11-20T07:36:48;-0.60;99.90
33023;DHT22;19390;51.460;5.710;2022-11-20T07:39:14;-0.50;99.90
33023;DHT22;19390;51.460;5.710;2022-11-20T07:41:40;-0.50;99.90
33023;DHT22;19390;51.460;5.710;2022-11-20T07:44:05;-0.60;99.90
33023;DHT22;19390;51.460;5.710;2022-11-20T07:46:31;-0.60;99.90
33023;DHT22;19390;51.460;5.710;2022-11-20T07:48:57;-0.70;99.90
33023;DHT22;19390;51.460;5.710;2022-11-20T07:51:22;-0.60;99.90
33023;DHT22;19390;51.460;5.710;2022-11-20T07:53:51;-0.60;99.90
33023;DHT22;19390;51.460;5.710;2022-11-20T07:56:17;-0.50;99.90
33023;DHT22;19390;51.460;5.710;2022-11-20T07:58:43;-0.40;99.90
33023;DHT22;19390;51.460;5.710;2022-11-20T08:01:08;-0.50;99.90
33023;DHT22;19390;51.460;5.710;2022-11-20T08:03:35;-0.50;99.90
33023;DHT22;19390;51.460;5.710;2022-11-20T08:06:03;-0.50;99.90
33023;DHT22;19390;51.460;5.710;2022-11-20T08:08:29;-0.40;99.90
33023;DHT22;19390;51.460;5.710;2022-11-20T08:10:57;-0.40;99.90
33023;DHT22;19390;51.460;5.710;2022-11-20T08:13:43;-0.30;99.90
33023;DHT22;19390;51.460;5.710;2022-11-20T08:16:27;-0.10;99.90
33023;DHT22;19390;51.460;5.710;2022-11-20T08:18:53;-0.10;99.90
33023;DHT22;19390;51.460;5.710;2022-11-20T08:21:19;0.00;99.90
33023;DHT22;19390;51.460;5.710;2022-11-20T08:23:45;0.20;99.90
33023;DHT22;19390;51.460;5.710;2022-11-20T08:26:10;0.10;99.90
33023;DHT22;19390;51.460;5.710;2022-11-20T08:28:36;0.20;99.90
33023;DHT22;19390;51.460;5.710;2022-11-20T08:31:02;0.40;99.90
33023;DHT22;19390;51.460;5.710;2022-11-20T08:33:29;0.60;99.90
33023;DHT22;19390;51.460;5.710;2022-11-20T08:35:59;0.80;99.90
33023;DHT22;19390;51.460;5.710;2022-11-20T08:38:25;0.70;99.90
33023;DHT22;19390;51.460;5.710;2022-11-20T08:40:51;0.60;99.90
33023;DHT22;19390;51.460;5.710;2022-11-20T08:43:35;0.60;99.90
33023;DHT22;19390;51.460;5.710;2022-11-20T08:46:06;0.50;99.90
33023;DHT22;19390;51.460;5.710;2022-11-20T08:48:32;0.60;99.90
33023;DHT22;19390;51.460;5.710;2022-11-20T08:50:58;0.80;99.90
33023;DHT22;19390;51.460;5.710;2022-11-20T08:53:25;0.80;99.90
33023;DHT22;19390;51.460;5.710;2022-11-20T08:55:50;0.90;99.90
33023;DHT22;19390;51.460;5.710;2022-11-20T08:58:17;1.00;99.90
33023;DHT22;19390;51.460;5.710;2022-11-20T09:00:43;1.10;99.90
33023;DHT22;19390;51.460;5.710;2022-11-20T09:03:08;1.20;99.90
33023;DHT22;19390;51.460;5.710;2022-11-20T09:05:34;1.30;99.90
33023;DHT22;19390;51.460;5.710;2022-11-20T09:08:00;1.40;99.90
33023;DHT22;19390;51.460;5.710;2022-11-20T09:10:28;1.50;99.90
33023;DHT22;19390;51.460;5.710;2022-11-20T09:12:54;1.50;99.90
33023;DHT22;19390;51.460;5.710;2022-11-20T09:15:21;1.50;99.90
33023;DHT22;19390;51.460;5.710;2022-11-20T09:18:00;1.70;99.90
33023;DHT22;19390;51.460;5.710;2022-11-20T09:20:27;1.60;99.90
33023;DHT22;19390;51.460;5.710;2022-11-20T09:22:54;1.70;99.90
33023;DHT22;19390;51.460;5.710;2022-11-20T09:25:20;1.70;99.90
33023;DHT22;19390;51.460;5.710;2022-11-20T09:27:46;1.80;99.90
33023;DHT22;19390;51.460;5.710;2022-11-20T09:30:13;1.90;99.90
33023;DHT22;19390;51.460;5.710;2022-11-20T09:32:40;2.00;99.90
33023;DHT22;19390;51.460;5.710;2022-11-20T09:35:06;2.00;99.90
33023;DHT22;19390;51.460;5.710;2022-11-20T09:37:32;2.10;99.90
33023;DHT22;19390;51.460;5.710;2022-11-20T09:39:57;2.00;99.90
33023;DHT22;19390;51.460;5.710;2022-11-20T09:51:06;2.20;99.90
33023;DHT22;19390;51.460;5.710;2022-11-20T09:56:10;2.30;99.90
33023;DHT22;19390;51.460;5.710;2022-11-20T09:58:45;2.40;99.90
33023;DHT22;19390;51.460;5.710;2022-11-20T10:01:21;2.50;99.90
33023;DHT22;19390;51.460;5.710;2022-11-20T10:06:34;2.50;99.90
33023;DHT22;19390;51.460;5.710;2022-11-20T10:22:56;2.60;99.90
33023;DHT22;19390;51.460;5.710;2022-11-20T10:25:33;2.50;99.90
33023;DHT22;19390;51.460;5.710;2022-11-20T10:30:41;2.60;99.90
33023;DHT22;19390;51.460;5.710;2022-11-20T10:33:21;2.80;99.90
33023;DHT22;19390;51.460;5.710;2022-11-20T10:36:05;2.90;99.90
33023;DHT22;19390;51.460;5.710;2022-11-20T10:38:45;2.80;99.90
33023;DHT22;19390;51.460;5.710;2022-11-20T10:41:27;2.80;99.90
33023;DHT22;19390;51.460;5.710;2022-11-20T10:47:03;2.90;99.90
33023;DHT22;19390;51.460;5.710;2022-11-20T10:49:31;3.00;99.90
33023;DHT22;19390;51.460;5.710;2022-11-20T10:54:47;2.80;99.90
33023;DHT22;19390;51.460;5.710;2022-11-20T10:57:20;3.00;99.90
33023;DHT22;19390;51.460;5.710;2022-11-20T10:59:51;3.10;99.90
33023;DHT22;19390;51.460;5.710;2022-11-20T11:02:31;3.20;99.90
33023;DHT22;19390;51.460;5.710;2022-11-20T11:04:58;3.00;99.90
33023;DHT22;19390;51.460;5.710;2022-11-20T11:07:38;3.00;99.90
33023;DHT22;19390;51.460;5.710;2022-11-20T11:12:47;3.20;99.90
33023;DHT22;19390;51.460;5.710;2022-11-20T11:15:40;3.40;99.90
33023;DHT22;19390;51.460;5.710;2022-11-20T11:18:23;3.10;99.90
33023;DHT22;19390;51.460;5.710;2022-11-20T11:20:50;3.20;99.90
33023;DHT22;19390;51.460;5.710;2022-11-20T11:23:38;3.20;99.90
33023;DHT22;19390;51.460;5.710;2022-11-20T11:26:19;3.30;99.90
33023;DHT22;19390;51.460;5.710;2022-11-20T11:28:59;3.20;99.90
33023;DHT22;19390;51.460;5.710;2022-11-20T11:31:28;3.30;99.90
33023;DHT22;19390;51.460;5.710;2022-11-20T11:34:07;3.40;99.90
33023;DHT22;19390;51.460;5.710;2022-11-20T11:36:34;3.40;99.90
33023;DHT22;19390;51.460;5.710;2022-11-20T11:39:01;3.30;99.90
33023;DHT22;19390;51.460;5.710;2022-11-20T11:41:33;3.30;99.90
33023;DHT22;19390;51.460;5.710;2022-11-20T11:47:00;3.40;99.90
33023;DHT22;19390;51.460;5.710;2022-11-20T11:49:26;3.40;99.90
33023;DHT22;19390;51.460;5.710;2022-11-20T11:54:58;3.40;99.90
33023;DHT22;19390;51.460;5.710;2022-11-20T11:58:04;3.30;99.90
33023;DHT22;19390;51.460;5.710;2022-11-20T12:00:32;3.30;99.90
33023;DHT22;19390;51.460;5.710;2022-11-20T12:03:05;3.40;99.90
33023;DHT22;19390;51.460;5.710;2022-11-20T12:05:40;3.40;99.90
33023;DHT22;19390;51.460;5.710;2022-11-20T12:13:48;3.50;99.90
33023;DHT22;19390;51.460;5.710;2022-11-20T12:16:18;3.70;99.90
33023;DHT22;19390;51.460;5.710;2022-11-20T12:18:48;3.70;99.90
33023;DHT22;19390;51.460;5.710;2022-11-20T12:22:48;3.80;99.90
33023;DHT22;19390;51.460;5.710;2022-11-20T12:25:00;3.80;99.90
33023;DHT22;19390;51.460;5.710;2022-11-20T12:27:39;3.80;99.90
33023;DHT22;19390;51.460;5.710;2022-11-20T12:30:15;3.80;99.90
33023;DHT22;19390;51.460;5.710;2022-11-20T12:35:49;3.90;99.90
33023;DHT22;19390;51.460;5.710;2022-11-20T12:47:28;4.30;99.90
33023;DHT22;19390;51.460;5.710;2022-11-20T12:50:02;4.20;99.90
33023;DHT22;19390;51.460;5.710;2022-11-20T13:07:30;4.40;99.90
33023;DHT22;19390;51.460;5.710;2022-11-20T13:09:59;4.30;99.90
33023;DHT22;19390;51.460;5.710;2022-11-20T13:15:11;4.40;99.90
33023;DHT22;19390;51.460;5.710;2022-11-20T13:17:46;4.40;99.90
33023;DHT22;19390;51.460;5.710;2022-11-20T13:20:18;4.60;99.90
33023;DHT22;19390;51.460;5.710;2022-11-20T13:22:45;4.50;99.90
33023;DHT22;19390;51.460;5.710;2022-11-20T13:27:48;4.60;99.90
33023;DHT22;19390;51.460;5.710;2022-11-20T13:30:17;4.60;99.90
33023;DHT22;19390;51.460;5.710;2022-11-20T13:33:04;4.60;99.90
33023;DHT22;19390;51.460;5.710;2022-11-20T13:35:33;4.60;99.90
33023;DHT22;19390;51.460;5.710;2022-11-20T13:38:05;4.60;99.90
33023;DHT22;19390;51.460;5.710;2022-11-20T13:40:32;4.70;99.90
33023;DHT22;19390;51.460;5.710;2022-11-20T13:43:10;4.70;99.90
33023;DHT22;19390;51.460;5.710;2022-11-20T13:45:38;4.80;99.90
33023;DHT22;19390;51.460;5.710;2022-11-20T13:48:18;4.80;99.90
33023;DHT22;19390;51.460;5.710;2022-11-20T13:56:47;4.70;99.90
33023;DHT22;19390;51.460;5.710;2022-11-20T14:01:49;4.80;99.90
33023;DHT22;19390;51.460;5.710;2022-11-20T14:04:18;4.80;99.90
33023;DHT22;19390;51.460;5.710;2022-11-20T14:06:46;4.80;99.90
33023;DHT22;19390;51.460;5.710;2022-11-20T14:09:26;4.80;99.90
33023;DHT22;19390;51.460;5.710;2022-11-20T14:11:52;4.80;99.90
33023;DHT22;19390;51.460;5.710;2022-11-20T14:14:20;4.90;99.90
33023;DHT22;19390;51.460;5.710;2022-11-20T14:16:48;4.90;99.90
33023;DHT22;19390;51.460;5.710;2022-11-20T14:21:53;4.90;99.90
33023;DHT22;19390;51.460;5.710;2022-11-20T14:24:21;4.90;99.90
33023;DHT22;19390;51.460;5.710;2022-11-20T14:26:48;4.90;99.90
33023;DHT22;19390;51.460;5.710;2022-11-20T14:29:14;4.90;99.90
33023;DHT22;19390;51.460;5.710;2022-11-20T14:31:42;4.90;99.90
33023;DHT22;19390;51.460;5.710;2022-11-20T14:34:25;4.90;99.90
33023;DHT22;19390;51.460;5.710;2022-11-20T14:37:27;4.90;99.90
33023;DHT22;19390;51.460;5.710;2022-11-20T14:39:54;4.90;99.90
33023;DHT22;19390;51.460;5.710;2022-11-20T14:42:23;4.90;99.90
33023;DHT22;19390;51.460;5.710;2022-11-20T14:44:51;4.90;99.90
33023;DHT22;19390;51.460;5.710;2022-11-20T14:47:21;4.90;99.90
33023;DHT22;19390;51.460;5.710;2022-11-20T14:49:49;4.90;99.90
33023;DHT22;19390;51.460;5.710;2022-11-20T14:52:19;4.90;99.90
33023;DHT22;19390;51.460;5.710;2022-11-20T14:54:49;4.90;99.90
33023;DHT22;19390;51.460;5.710;2022-11-20T14:57:29;5.00;99.90
33023;DHT22;19390;51.460;5.710;2022-11-20T15:02:45;5.00;99.90
33023;DHT22;19390;51.460;5.710;2022-11-20T15:05:11;5.00;99.90
33023;DHT22;19390;51.460;5.710;2022-11-20T15:07:40;5.00;99.90
33023;DHT22;19390;51.460;5.710;2022-11-20T15:10:19;5.00;99.90
33023;DHT22;19390;51.460;5.710;2022-11-20T15:15:34;5.10;99.90
33023;DHT22;19390;51.460;5.710;2022-11-20T15:18:00;5.10;99.90
33023;DHT22;19390;51.460;5.710;2022-11-20T15:20:29;5.20;99.90
33023;DHT22;19390;51.460;5.710;2022-11-20T15:22:55;5.20;99.90
33023;DHT22;19390;51.460;5.710;2022-11-20T15:25:21;5.20;99.90
33023;DHT22;19390;51.460;5.710;2022-11-20T15:27:49;5.30;99.90
33023;DHT22;19390;51.460;5.710;2022-11-20T15:30:20;5.30;99.90
33023;DHT22;19390;51.460;5.710;2022-11-20T15:32:46;5.30;99.90
33023;DHT22;19390;51.460;5.710;2022-11-20T15:35:13;5.40;99.90
33023;DHT22;19390;51.460;5.710;2022-11-20T15:37:39;5.50;99.90
33023;DHT22;19390;51.460;5.710;2022-11-20T15:40:06;5.50;99.90
33023;DHT22;19390;51.460;5.710;2022-11-20T15:42:32;5.60;99.90
33023;DHT22;19390;51.460;5.710;2022-11-20T15:44:58;5.60;99.90
33023;DHT22;19390;51.460;5.710;2022-11-20T15:47:32;5.60;99.90
33023;DHT22;19390;51.460;5.710;2022-11-20T15:50:10;5.60;99.90
33023;DHT22;19390;51.460;5.710;2022-11-20T15:52:39;5.70;99.90
33023;DHT22;19390;51.460;5.710;2022-11-20T15:55:09;5.70;99.90
33023;DHT22;19390;51.460;5.710;2022-11-20T15:57:35;5.70;99.90
33023;DHT22;19390;51.460;5.710;2022-11-20T16:00:04;5.80;99.90
33023;DHT22;19390;51.460;5.710;2022-11-20T16:02:30;5.80;99.90
33023;DHT22;19390;51.460;5.710;2022-11-20T16:04:55;5.90;99.90
33023;DHT22;19390;51.460;5.710;2022-11-20T16:07:21;5.90;99.90
33023;DHT22;19390;51.460;5.710;2022-11-20T16:09:47;6.00;99.90
33023;DHT22;19390;51.460;5.710;2022-11-20T16:12:31;6.10;99.90
33023;DHT22;19390;51.460;5.710;2022-11-20T16:15:15;6.10;99.90
33023;DHT22;19390;51.460;5.710;2022-11-20T16:18:09;6.10;99.90
33023;DHT22;19390;51.460;5.710;2022-11-20T16:20:35;6.20;99.90
33023;DHT22;19390;51.460;5.710;2022-11-20T16:23:01;6.20;99.90
33023;DHT22;19390;51.460;5.710;2022-11-20T16:25:27;6.20;99.90
33023;DHT22;19390;51.460;5.710;2022-11-20T16:27:53;6.20;99.90
33023;DHT22;19390;51.460;5.710;2022-11-20T16:30:18;6.40;99.90
33023;DHT22;19390;51.460;5.710;2022-11-20T16:32:44;7.00;99.90
33023;DHT22;19390;51.460;5.710;2022-11-20T16:35:15;6.80;99.90
33023;DHT22;19390;51.460;5.710;2022-11-20T16:37:41;7.00;99.90
33023;DHT22;19390;51.460;5.710;2022-11-20T16:40:07;7.20;99.90
33023;DHT22;19390;51.460;5.710;2022-11-20T16:42:40;6.90;99.90
33023;DHT22;19390;51.460;5.710;2022-11-20T16:45:06;6.90;99.90
33023;DHT22;19390;51.460;5.710;2022-11-20T16:47:34;7.00;99.90
33023;DHT22;19390;51.460;5.710;2022-11-20T16:50:05;8.10;99.90
33023;DHT22;19390;51.460;5.710;2022-11-20T16:52:30;6.80;99.90
33023;DHT22;19390;51.460;5.710;2022-11-20T16:54:57;6.90;99.90
33023;DHT22;19390;51.460;5.710;2022-11-20T16:57:23;7.30;99.90
33023;DHT22;19390;51.460;5.710;2022-11-20T16:59:49;6.80;99.90
33023;DHT22;19390;51.460;5.710;2022-11-20T17:02:21;7.60;99.90
33023;DHT22;19390;51.460;5.710;2022-11-20T17:04:46;6.80;99.90
33023;DHT22;19390;51.460;5.710;2022-11-20T17:07:17;6.90;99.90
33023;DHT22;19390;51.460;5.710;2022-11-20T17:09:43;7.30;99.90
33023;DHT22;19390;51.460;5.710;2022-11-20T17:12:11;7.60;99.90
33023;DHT22;19390;51.460;5.710;2022-11-20T17:14:36;7.20;99.90
33023;DHT22;19390;51.460;5.710;2022-11-20T17:17:12;7.40;99.90
33023;DHT22;19390;51.460;5.710;2022-11-20T17:19:38;7.50;99.90
33023;DHT22;19390;51.460;5.710;2022-11-20T17:22:09;7.30;99.90
33023;DHT22;19390;51.460;5.710;2022-11-20T17:24:35;7.10;99.90
33023;DHT22;19390;51.460;5.710;2022-11-20T17:27:01;7.20;99.90
33023;DHT22;19390;51.460;5.710;2022-11-20T17:29:26;7.10;99.90
33023;DHT22;19390;51.460;5.710;2022-11-20T17:31:56;7.40;99.90
33023;DHT22;19390;51.460;5.710;2022-11-20T17:34:22;7.60;99.90